createdAt,value
2019-01-28T00:00:50.190Z,3.80
2019-01-28T00:03:24.144Z,3.80
2019-01-28T00:06:02.262Z,3.77
2019-01-28T00:08:38.731Z,3.60
2019-01-28T00:11:15.528Z,3.67
2019-01-28T00:13:45.738Z,4.27
2019-01-28T00:16:15.926Z,4.33
2019-01-28T00:18:45.964Z,4.43
2019-01-28T00:21:16.118Z,5.10
2019-01-28T00:23:46.168Z,4.43
2019-01-28T00:26:16.334Z,4.47
2019-01-28T00:28:46.376Z,4.80
2019-01-28T00:31:16.534Z,5.23
2019-01-28T00:33:46.589Z,5.03
2019-01-28T00:36:16.896Z,5.03
2019-01-28T00:38:47.000Z,5.00
2019-01-28T00:41:18.758Z,4.93
2019-01-28T00:43:49.183Z,5.13
2019-01-28T00:46:20.867Z,5.03
2019-01-28T00:48:51.076Z,5.37
2019-01-28T00:51:21.155Z,5.00
2019-01-28T00:53:51.234Z,4.73
2019-01-28T00:56:22.354Z,4.60
2019-01-28T00:58:52.391Z,4.83
2019-01-28T01:01:23.068Z,4.50
2019-01-28T01:03:53.034Z,4.60
2019-01-28T01:06:23.093Z,4.37
2019-01-28T01:08:53.138Z,4.50
2019-01-28T01:11:24.706Z,4.67
2019-01-28T01:13:54.743Z,4.17
2019-01-28T01:16:25.409Z,4.23
2019-01-28T01:18:55.432Z,4.97
2019-01-28T01:21:26.372Z,3.83
2019-01-28T01:23:56.409Z,3.90
2019-01-28T01:26:26.588Z,4.50
2019-01-28T01:28:56.657Z,4.40
2019-01-28T01:31:27.939Z,3.80
2019-01-28T01:33:58.095Z,4.60
2019-01-28T01:36:28.191Z,4.47
2019-01-28T01:38:58.202Z,4.07
2019-01-28T01:41:28.458Z,4.10
2019-01-28T01:43:58.509Z,4.40
2019-01-28T01:46:28.677Z,4.80
2019-01-28T01:48:59.316Z,4.70
2019-01-28T01:51:29.415Z,4.67
2019-01-28T01:53:59.463Z,5.10
2019-01-28T01:56:29.585Z,4.77
2019-01-28T01:58:59.619Z,4.60
2019-01-28T02:01:30.310Z,5.53
2019-01-28T02:04:00.463Z,5.13
2019-01-28T02:06:30.467Z,4.67
2019-01-28T02:09:00.536Z,5.53
2019-01-28T02:11:31.728Z,5.27
2019-01-28T02:14:07.957Z,5.43
2019-01-28T02:16:37.972Z,5.47
2019-01-28T02:19:08.000Z,6.10
2019-01-28T02:21:38.837Z,6.03
2019-01-28T02:24:08.891Z,5.67
2019-01-28T02:26:38.961Z,5.43
2019-01-28T02:29:09.015Z,5.77
2019-01-28T02:31:39.071Z,5.80
2019-01-28T02:34:09.121Z,4.97
2019-01-28T02:36:40.477Z,5.20
2019-01-28T02:39:10.507Z,6.53
2019-01-28T02:41:40.663Z,5.90
2019-01-28T02:44:10.721Z,5.47
2019-01-28T02:46:40.831Z,5.60
2019-01-28T02:49:10.879Z,6.07
2019-01-28T02:51:42.012Z,6.47
2019-01-28T02:54:12.060Z,6.27
2019-01-28T02:56:42.249Z,6.13
2019-01-28T02:59:12.308Z,5.80
2019-01-28T03:01:42.332Z,6.00
2019-01-28T03:04:12.409Z,6.17
2019-01-28T03:06:43.085Z,6.73
2019-01-28T03:09:13.122Z,6.43
2019-01-28T03:11:43.287Z,6.87
2019-01-28T03:14:13.405Z,6.80
2019-01-28T03:16:43.446Z,6.87
2019-01-28T03:19:13.504Z,6.17
2019-01-28T03:21:43.677Z,6.07
2019-01-28T03:24:13.815Z,6.23
2019-01-28T03:26:43.897Z,6.17
2019-01-28T03:29:13.952Z,6.33
2019-01-28T03:31:43.998Z,6.13
2019-01-28T03:34:14.033Z,6.60
2019-01-28T03:36:44.116Z,7.53
2019-01-28T03:39:14.168Z,7.53
2019-01-28T03:41:44.231Z,7.67
2019-01-28T03:44:14.271Z,7.50
2019-01-28T03:46:44.326Z,8.33
2019-01-28T03:49:14.397Z,8.47
2019-01-28T03:51:44.547Z,7.73
2019-01-28T03:54:14.699Z,8.30
2019-01-28T03:56:44.792Z,8.50
2019-01-28T03:59:14.830Z,8.50
2019-01-28T04:01:44.855Z,8.13
2019-01-28T04:04:14.918Z,8.50
2019-01-28T04:06:45.009Z,10.30
2019-01-28T04:09:15.059Z,10.07
2019-01-28T04:11:45.145Z,9.63
2019-01-28T04:14:16.667Z,10.53
2019-01-28T04:16:46.701Z,9.67
2019-01-28T04:19:16.809Z,9.93
2019-01-28T04:21:46.874Z,9.50
2019-01-28T04:24:16.933Z,9.73
2019-01-28T04:26:46.982Z,10.17
2019-01-28T04:29:17.029Z,10.60
2019-01-28T04:31:47.102Z,11.20
2019-01-28T04:34:17.182Z,11.67
2019-01-28T04:36:47.319Z,12.07
2019-01-28T04:39:17.353Z,11.73
2019-01-28T04:41:47.403Z,12.17
2019-01-28T04:44:18.125Z,12.00
2019-01-28T04:46:48.298Z,12.37
2019-01-28T04:49:18.341Z,12.07
2019-01-28T04:51:48.479Z,12.30
2019-01-28T04:54:18.580Z,12.53
2019-01-28T04:56:48.646Z,13.00
2019-01-28T04:59:18.691Z,11.73
2019-01-28T05:01:48.764Z,10.90
2019-01-28T05:04:18.892Z,10.77
2019-01-28T05:06:48.955Z,9.93
2019-01-28T05:09:19.101Z,10.03
2019-01-28T05:11:49.214Z,8.97
2019-01-28T05:14:19.238Z,8.00
2019-01-28T05:16:49.303Z,8.37
2019-01-28T05:19:19.342Z,7.87
2019-01-28T05:21:49.417Z,6.10
2019-01-28T05:24:19.487Z,4.93
2019-01-28T05:26:49.532Z,4.57
2019-01-28T05:29:19.607Z,4.30
2019-01-28T05:31:49.661Z,4.40
2019-01-28T05:34:19.721Z,3.80
2019-01-28T05:36:49.760Z,3.73
2019-01-28T05:39:19.860Z,3.80
2019-01-28T05:41:49.945Z,3.43
2019-01-28T05:44:19.992Z,2.97
2019-01-28T05:46:50.273Z,3.13
2019-01-28T05:49:20.770Z,3.80
2019-01-28T05:51:50.840Z,3.17
2019-01-28T05:54:20.939Z,3.33
2019-01-28T05:56:51.065Z,2.97
2019-01-28T05:59:21.209Z,3.60
2019-01-28T06:01:51.263Z,2.70
2019-01-28T06:04:21.287Z,3.23
2019-01-28T06:06:51.378Z,2.90
2019-01-28T06:09:22.660Z,3.40
2019-01-28T06:11:55.130Z,2.70
2019-01-28T06:14:25.163Z,2.90
2019-01-28T06:16:55.218Z,2.83
2019-01-28T06:19:25.773Z,2.67
2019-01-28T06:21:55.836Z,4.53
2019-01-28T06:24:25.959Z,3.10
2019-01-28T06:26:56.062Z,2.57
2019-01-28T06:29:26.873Z,3.93
2019-01-28T06:31:57.008Z,5.57
2019-01-28T06:34:27.569Z,12.77
2019-01-28T06:36:57.613Z,18.43
2019-01-28T06:39:27.727Z,26.47
2019-01-28T06:41:57.780Z,12.40
2019-01-28T06:44:27.851Z,11.77
2019-01-28T06:46:57.923Z,27.17
2019-01-28T06:49:28.037Z,25.43
2019-01-28T06:51:58.129Z,33.53
2019-01-28T06:54:28.383Z,19.97
2019-01-28T06:56:58.473Z,12.10
2019-01-28T06:59:28.568Z,26.37
2019-01-28T07:01:58.637Z,12.13
2019-01-28T07:04:28.741Z,17.60
2019-01-28T07:06:58.784Z,16.80
2019-01-28T07:09:28.851Z,24.50
2019-01-28T07:11:58.923Z,17.73
2019-01-28T07:14:28.987Z,20.97
2019-01-28T07:16:59.064Z,32.87
2019-01-28T07:19:31.279Z,16.57
2019-01-28T07:22:01.457Z,24.20
2019-01-28T07:24:31.577Z,13.70
2019-01-28T07:27:01.656Z,36.33
2019-01-28T07:29:31.734Z,44.77
2019-01-28T07:32:01.790Z,42.37
2019-01-28T07:34:31.848Z,43.43
2019-01-28T07:37:02.163Z,23.37
2019-01-28T07:39:32.234Z,26.60
2019-01-28T07:42:02.268Z,23.70
2019-01-28T07:44:32.380Z,18.17
2019-01-28T07:47:02.462Z,14.73
2019-01-28T07:49:32.554Z,15.93
2019-01-28T07:52:02.825Z,16.10
2019-01-28T07:54:32.834Z,11.83
2019-01-28T07:57:02.906Z,10.73
2019-01-28T07:59:32.964Z,8.33
2019-01-28T08:02:03.028Z,6.63
2019-01-28T08:04:33.116Z,7.30
2019-01-28T08:07:03.762Z,5.97
2019-01-28T08:09:33.844Z,5.73
2019-01-28T08:12:04.096Z,5.63
2019-01-28T08:14:34.118Z,5.60
2019-01-28T08:17:04.175Z,7.03
2019-01-28T08:19:34.240Z,6.40
2019-01-28T08:22:04.792Z,6.10
2019-01-28T08:24:34.871Z,6.23
2019-01-28T08:27:04.916Z,7.00
2019-01-28T08:29:35.204Z,7.13
2019-01-28T08:32:05.247Z,7.40
2019-01-28T08:34:35.309Z,7.90
2019-01-28T08:37:05.693Z,7.33
2019-01-28T08:39:35.751Z,8.83
2019-01-28T08:42:05.892Z,9.73
2019-01-28T08:44:35.973Z,10.67
2019-01-28T08:47:06.122Z,11.17
2019-01-28T08:49:36.167Z,10.53
2019-01-28T08:52:06.271Z,10.77
2019-01-28T08:54:36.311Z,11.13
2019-01-28T08:57:06.571Z,10.53
2019-01-28T08:59:36.630Z,9.53
2019-01-28T09:02:06.867Z,10.53
2019-01-28T09:04:36.922Z,10.60
2019-01-28T09:07:07.094Z,10.13
2019-01-28T09:09:37.260Z,8.97
2019-01-28T09:12:07.349Z,9.57
2019-01-28T09:14:37.383Z,9.57
2019-01-28T09:17:07.524Z,9.33
2019-01-28T09:19:37.579Z,9.40
2019-01-28T09:22:07.767Z,10.03
2019-01-28T09:24:38.363Z,9.17
2019-01-28T09:27:08.388Z,9.17
2019-01-28T09:29:38.455Z,10.57
2019-01-28T09:32:08.710Z,9.53
2019-01-28T09:34:38.761Z,8.20
2019-01-28T09:37:08.801Z,8.30
2019-01-28T09:39:39.341Z,8.00
2019-01-28T09:42:09.416Z,7.63
2019-01-28T09:44:39.481Z,8.13
2019-01-28T09:47:09.560Z,8.23
2019-01-28T09:49:39.626Z,7.97
2019-01-28T09:52:09.817Z,6.67
2019-01-28T09:54:41.082Z,7.83
2019-01-28T09:57:11.195Z,7.00
2019-01-28T09:59:41.331Z,7.27
2019-01-28T10:02:11.473Z,7.00
2019-01-28T10:04:41.542Z,6.03
2019-01-28T10:07:11.588Z,6.47
2019-01-28T10:09:42.165Z,6.63
2019-01-28T10:12:12.213Z,5.97
2019-01-28T10:14:42.316Z,5.53
2019-01-28T10:17:12.340Z,5.20
2019-01-28T10:19:42.403Z,5.70
2019-01-28T10:22:12.420Z,5.73
2019-01-28T10:24:42.947Z,4.97
2019-01-28T10:27:12.995Z,4.90
2019-01-28T10:29:43.013Z,4.90
2019-01-28T10:32:13.085Z,5.57
2019-01-28T10:34:43.076Z,4.07
2019-01-28T10:37:13.135Z,4.63
2019-01-28T10:39:43.363Z,4.60
2019-01-28T10:42:13.520Z,4.73
2019-01-28T10:44:43.567Z,4.60
2019-01-28T10:47:13.731Z,4.63
2019-01-28T10:49:43.730Z,4.60
2019-01-28T10:52:13.995Z,4.60
2019-01-28T10:54:44.130Z,4.17
2019-01-28T10:57:14.171Z,4.30
2019-01-28T10:59:44.207Z,4.43
2019-01-28T11:02:14.250Z,3.83
2019-01-28T11:04:46.071Z,4.17
2019-01-28T11:07:16.121Z,4.17
2019-01-28T11:09:46.304Z,3.90
2019-01-28T11:12:16.356Z,3.80
2019-01-28T11:14:46.443Z,3.60
2019-01-28T11:17:16.524Z,4.00
2019-01-28T11:19:46.618Z,3.27
2019-01-28T11:22:16.822Z,3.40
2019-01-28T11:24:46.936Z,3.50
2019-01-28T11:27:16.959Z,3.67
2019-01-28T11:29:47.493Z,3.33
2019-01-28T11:32:17.598Z,3.60
2019-01-28T11:34:47.641Z,4.23
2019-01-28T11:37:17.755Z,4.50
2019-01-28T11:39:47.931Z,3.20
2019-01-28T11:42:18.017Z,3.80
2019-01-28T11:44:48.217Z,3.37
2019-01-28T11:47:18.398Z,3.40
2019-01-28T11:49:48.422Z,3.13
2019-01-28T11:52:18.547Z,3.30
2019-01-28T11:54:48.581Z,3.10
2019-01-28T11:57:18.995Z,3.23
2019-01-28T11:59:49.058Z,3.40
2019-01-28T12:02:19.165Z,3.00
2019-01-28T12:04:49.279Z,2.97
2019-01-28T12:07:19.523Z,3.30
2019-01-28T12:09:49.620Z,2.80
2019-01-28T12:12:19.738Z,3.33
2019-01-28T12:14:50.411Z,3.07
2019-01-28T12:17:20.759Z,3.13
2019-01-28T12:19:50.861Z,3.17
2019-01-28T12:22:20.875Z,3.10
2019-01-28T12:24:51.032Z,2.83
2019-01-28T12:27:21.066Z,3.30
2019-01-28T12:29:51.137Z,2.90
2019-01-28T12:32:21.176Z,2.73
2019-01-28T12:34:51.213Z,3.00
2019-01-28T12:37:21.280Z,3.03
2019-01-28T12:39:51.363Z,2.67
2019-01-28T12:42:21.391Z,2.80
2019-01-28T12:44:51.465Z,2.60
2019-01-28T12:47:21.545Z,2.60
2019-01-28T12:49:51.596Z,2.57
2019-01-28T12:52:21.633Z,2.30
2019-01-28T12:54:51.662Z,2.30
2019-01-28T12:57:21.706Z,2.37
2019-01-28T12:59:51.748Z,2.27
2019-01-28T13:02:22.400Z,2.47
2019-01-28T13:04:52.460Z,1.80
2019-01-28T13:07:22.490Z,2.10
2019-01-28T13:09:52.554Z,2.30
2019-01-28T13:12:22.606Z,2.43
2019-01-28T13:14:52.673Z,2.17
2019-01-28T13:17:22.780Z,1.80
2019-01-28T13:19:53.736Z,1.90
2019-01-28T13:22:23.879Z,1.97
2019-01-28T13:24:53.927Z,1.70
2019-01-28T13:27:24.140Z,1.80
2019-01-28T13:29:54.211Z,1.97
2019-01-28T13:32:24.269Z,1.70
2019-01-28T13:34:54.342Z,2.00
2019-01-28T13:37:24.466Z,1.93
2019-01-28T13:39:54.442Z,1.60
2019-01-28T13:42:24.501Z,2.07
2019-01-28T13:44:54.778Z,2.20
2019-01-28T13:47:24.961Z,2.37
2019-01-28T13:49:55.911Z,1.90
2019-01-28T13:52:26.746Z,2.10
2019-01-28T13:54:57.354Z,1.70
2019-01-28T13:57:27.608Z,1.80
2019-01-28T13:59:57.671Z,1.70
2019-01-28T14:02:27.767Z,1.80
2019-01-28T14:04:57.811Z,2.17
2019-01-28T14:07:28.521Z,1.63
2019-01-28T14:09:58.528Z,1.70
2019-01-28T14:12:28.650Z,2.07
2019-01-28T14:14:58.746Z,1.87
2019-01-28T14:17:29.934Z,2.47
2019-01-28T14:20:00.182Z,1.90
2019-01-28T14:22:31.867Z,2.03
2019-01-28T14:25:03.856Z,2.13
2019-01-28T14:27:35.294Z,1.87
2019-01-28T14:30:08.174Z,1.73
2019-01-28T14:32:40.098Z,1.23
2019-01-28T14:35:11.175Z,1.47
2019-01-28T14:37:41.922Z,1.50
2019-01-28T14:40:17.126Z,4.77
2019-01-28T14:42:47.733Z,2.00
2019-01-28T14:45:18.683Z,1.37
2019-01-28T14:47:58.913Z,1.40
2019-01-28T14:50:42.326Z,1.67
2019-01-28T14:53:13.204Z,1.47
2019-01-28T14:55:44.409Z,1.60
2019-01-28T14:58:16.763Z,1.27
2019-01-28T15:00:48.764Z,1.63
2019-01-28T15:03:21.158Z,1.50
2019-01-28T15:05:52.727Z,1.40
2019-01-28T15:08:23.676Z,1.50
2019-01-28T15:10:55.788Z,1.33
2019-01-28T15:13:27.431Z,1.53
2019-01-28T15:15:58.133Z,1.70
2019-01-28T15:18:28.813Z,1.60
2019-01-28T15:20:59.573Z,1.50
2019-01-28T15:23:30.297Z,1.77
2019-01-28T15:26:00.940Z,1.50
2019-01-28T15:28:34.271Z,1.73
2019-01-28T15:31:05.442Z,1.57
2019-01-28T15:33:36.162Z,1.77
2019-01-28T15:36:07.133Z,1.77
2019-01-28T15:38:38.211Z,1.80
2019-01-28T15:41:08.971Z,1.93
2019-01-28T15:43:41.005Z,1.60
2019-01-28T15:46:12.442Z,1.50
2019-01-28T15:48:45.018Z,1.77
2019-01-28T15:51:16.206Z,1.30
2019-01-28T15:53:47.037Z,1.70
2019-01-28T15:56:17.943Z,1.93
2019-01-28T15:58:49.527Z,1.93
2019-01-28T16:01:20.736Z,1.73
2019-01-28T16:03:53.235Z,1.70
2019-01-28T16:06:25.043Z,1.70
2019-01-28T16:08:55.728Z,2.03
2019-01-28T16:11:28.349Z,1.87
2019-01-28T16:13:58.990Z,1.93
2019-01-28T16:16:30.416Z,1.47
2019-01-28T16:19:01.139Z,1.93
2019-01-28T16:21:31.832Z,2.20
2019-01-28T16:24:02.754Z,2.53
2019-01-28T16:26:33.455Z,2.50
2019-01-28T16:29:04.107Z,2.83
2019-01-28T16:31:34.814Z,2.33
2019-01-28T16:34:06.205Z,2.67
2019-01-28T16:36:37.190Z,2.20
2019-01-28T16:39:11.006Z,2.60
2019-01-28T16:41:41.889Z,2.70
2019-01-28T16:44:13.381Z,2.30
2019-01-28T16:46:44.005Z,2.33
2019-01-28T16:49:14.790Z,2.57
2019-01-28T16:51:45.499Z,2.50
2019-01-28T16:54:16.294Z,2.57
2019-01-28T16:56:47.003Z,2.70
2019-01-28T16:59:18.250Z,3.10
2019-01-28T17:01:49.995Z,3.13
2019-01-28T17:04:22.276Z,3.07
2019-01-28T17:06:53.777Z,3.23
2019-01-28T17:09:24.947Z,3.43
2019-01-28T17:11:55.931Z,3.33
2019-01-28T17:14:26.738Z,3.60
2019-01-28T17:16:58.331Z,3.47
2019-01-28T17:19:29.944Z,3.17
2019-01-28T17:22:02.822Z,3.13
2019-01-28T17:24:36.481Z,2.60
2019-01-28T17:27:07.749Z,3.10
2019-01-28T17:29:38.550Z,3.13
2019-01-28T17:32:10.035Z,3.47
2019-01-28T17:34:41.915Z,3.47
2019-01-28T17:37:14.172Z,4.20
2019-01-28T17:39:44.954Z,5.17
2019-01-28T17:42:16.599Z,4.37
2019-01-28T17:44:47.880Z,4.40
2019-01-28T17:47:19.899Z,7.63
2019-01-28T17:50:00.971Z,6.70
2019-01-28T17:52:26.746Z,6.77
2019-01-28T17:54:58.409Z,10.10
2019-01-28T17:57:30.452Z,11.90
2019-01-28T18:00:01.288Z,8.87
2019-01-28T18:02:32.078Z,7.23
2019-01-28T18:05:02.807Z,37.73
2019-01-28T18:07:33.574Z,49.80
2019-01-28T18:10:05.365Z,86.73
2019-01-28T18:12:36.051Z,37.47
2019-01-28T18:15:10.076Z,82.50
2019-01-28T18:17:40.757Z,38.70
2019-01-28T18:20:14.397Z,53.93
2019-01-28T18:22:48.314Z,18.43
2019-01-28T18:25:22.398Z,24.97
2019-01-28T18:27:53.576Z,52.50
2019-01-28T18:30:47.703Z,49.27
2019-01-28T18:33:18.398Z,76.07
2019-01-28T18:35:49.210Z,83.97
2019-01-28T18:38:19.943Z,94.10
2019-01-28T18:40:50.588Z,92.00
2019-01-28T18:43:21.366Z,113.60
2019-01-28T18:45:52.096Z,108.33
2019-01-28T18:48:22.818Z,77.70
2019-01-28T18:50:59.514Z,54.27
2019-01-28T18:53:26.689Z,48.27
2019-01-28T18:55:57.846Z,48.60
2019-01-28T18:58:29.419Z,46.60
2019-01-28T19:01:00.207Z,26.50
2019-01-28T19:03:35.852Z,35.97
2019-01-28T19:06:30.970Z,16.10
2019-01-28T19:09:27.724Z,21.27
2019-01-28T19:12:26.664Z,24.80
2019-01-28T19:15:02.588Z,6.97
2019-01-28T19:17:50.975Z,8.37
2019-01-28T19:20:35.864Z,5.30
2019-01-28T19:23:06.792Z,5.20
2019-01-28T19:25:38.196Z,5.40
2019-01-28T19:28:09.599Z,3.03
2019-01-28T19:30:44.347Z,3.13
2019-01-28T19:33:15.322Z,2.37
2019-01-28T19:35:48.083Z,2.37
2019-01-28T19:38:19.947Z,5.27
2019-01-28T19:40:51.076Z,5.33
2019-01-28T19:43:22.701Z,2.80
2019-01-28T19:45:53.792Z,2.07
2019-01-28T19:48:27.407Z,1.93
2019-01-28T19:50:58.780Z,4.47
2019-01-28T19:53:29.619Z,41.13
2019-01-28T19:56:00.752Z,32.20
2019-01-28T19:58:32.037Z,47.73
2019-01-28T20:01:03.056Z,90.53
2019-01-28T20:03:34.350Z,82.87
2019-01-28T20:06:05.158Z,82.27
2019-01-28T20:08:39.494Z,70.33
2019-01-28T20:11:10.475Z,56.67
2019-01-28T20:13:41.385Z,17.43
2019-01-28T20:16:14.296Z,11.77
2019-01-28T20:18:47.719Z,21.27
2019-01-28T20:21:23.730Z,23.80
2019-01-28T20:23:51.482Z,8.23
2019-01-28T20:26:24.560Z,5.43
2019-01-28T20:28:55.928Z,3.73
2019-01-28T20:31:27.533Z,3.40
2019-01-28T20:34:04.682Z,2.67
2019-01-28T20:36:44.087Z,4.13
2019-01-28T20:39:16.453Z,4.37
2019-01-28T20:41:50.688Z,9.53
2019-01-28T20:44:21.712Z,8.27
2019-01-28T20:46:52.657Z,8.27
2019-01-28T20:49:24.235Z,4.70
2019-01-28T20:51:55.284Z,4.97
2019-01-28T20:54:27.191Z,5.50
2019-01-28T20:56:57.970Z,4.43
2019-01-28T20:59:28.873Z,14.77
2019-01-28T21:02:01.708Z,8.30
2019-01-28T21:04:32.877Z,4.47
2019-01-28T21:07:04.851Z,4.57
2019-01-28T21:09:35.647Z,10.70
2019-01-28T21:12:06.650Z,5.60
2019-01-28T21:14:37.503Z,4.60
2019-01-28T21:17:08.422Z,3.70
2019-01-28T21:19:41.991Z,3.30
2019-01-28T21:22:12.035Z,3.53
2019-01-28T21:24:44.425Z,4.07
2019-01-28T21:27:14.504Z,4.43
2019-01-28T21:29:44.581Z,3.83
2019-01-28T21:32:14.608Z,4.03
2019-01-28T21:34:44.691Z,3.60
2019-01-28T21:37:22.768Z,3.67
2019-01-28T21:39:52.895Z,3.50
2019-01-28T21:42:23.646Z,3.73
2019-01-28T21:44:54.363Z,3.60
2019-01-28T21:47:26.066Z,4.33
2019-01-28T21:49:57.641Z,3.93
2019-01-28T21:52:29.109Z,4.20
2019-01-28T21:54:59.768Z,4.40
2019-01-28T21:57:30.723Z,4.07
2019-01-28T22:00:01.590Z,4.17
2019-01-28T22:02:32.399Z,3.60
2019-01-28T22:05:03.655Z,2.87
2019-01-28T22:07:35.134Z,3.00
2019-01-28T22:10:07.789Z,3.00
2019-01-28T22:12:46.328Z,3.20
2019-01-28T22:15:20.261Z,3.13
2019-01-28T22:17:50.879Z,3.23
2019-01-28T22:20:22.602Z,2.83
2019-01-28T22:22:53.292Z,3.30
2019-01-28T22:25:23.978Z,3.60
2019-01-28T22:27:57.327Z,3.80
2019-01-28T22:30:26.973Z,4.03
2019-01-28T22:32:57.651Z,3.90
2019-01-28T22:35:28.374Z,4.13
2019-01-28T22:37:59.127Z,4.83
2019-01-28T22:40:30.504Z,4.90
2019-01-28T22:43:01.193Z,5.10
2019-01-28T22:45:31.808Z,6.00
2019-01-28T22:48:02.441Z,6.73
2019-01-28T22:50:33.106Z,7.53
2019-01-28T22:53:03.898Z,7.17
2019-01-28T22:55:36.598Z,7.13
2019-01-28T22:58:07.851Z,8.00
2019-01-28T23:01:15.719Z,7.43
2019-01-28T23:03:46.396Z,7.47
2019-01-28T23:06:17.061Z,8.37
2019-01-28T23:08:47.937Z,7.53
2019-01-28T23:11:18.600Z,8.03
2019-01-28T23:13:49.360Z,7.67
2019-01-28T23:16:19.474Z,7.60
2019-01-28T23:18:49.522Z,8.23
2019-01-28T23:21:19.535Z,7.77
2019-01-28T23:23:49.603Z,8.33
2019-01-28T23:26:19.641Z,8.53
2019-01-28T23:28:49.688Z,8.30
2019-01-28T23:31:19.792Z,9.13
2019-01-28T23:33:50.123Z,8.77
2019-01-28T23:36:20.257Z,9.43
2019-01-28T23:38:50.335Z,9.37
2019-01-28T23:41:21.038Z,9.43
2019-01-28T23:43:51.196Z,9.03
2019-01-28T23:46:21.263Z,9.70
2019-01-28T23:48:51.368Z,10.03
